createdAt,value
2018-09-20T00:01:57.296Z,17.00
2018-09-20T00:04:25.957Z,17.00
2018-09-20T00:06:54.673Z,16.90
2018-09-20T00:09:23.380Z,16.90
2018-09-20T00:11:52.061Z,16.70
2018-09-20T00:14:20.720Z,16.60
2018-09-20T00:16:49.493Z,16.60
2018-09-20T00:19:18.189Z,16.60
2018-09-20T00:21:46.923Z,16.50
2018-09-20T00:24:15.778Z,16.50
2018-09-20T00:26:44.556Z,16.50
2018-09-20T00:29:19.452Z,16.50
2018-09-20T00:31:48.126Z,16.50
2018-09-20T00:34:16.850Z,16.50
2018-09-20T00:36:45.533Z,16.50
2018-09-20T00:39:14.804Z,16.50
2018-09-20T00:41:43.725Z,16.50
2018-09-20T00:44:12.876Z,16.60
2018-09-20T00:46:41.624Z,16.60
2018-09-20T00:49:10.396Z,16.60
2018-09-20T00:51:39.032Z,16.60
2018-09-20T00:54:07.840Z,16.50
2018-09-20T00:56:36.552Z,16.50
2018-09-20T00:59:05.345Z,16.60
2018-09-20T01:01:34.047Z,16.50
2018-09-20T01:04:02.665Z,16.50
2018-09-20T01:06:31.468Z,16.40
2018-09-20T01:09:00.097Z,16.30
2018-09-20T01:11:28.773Z,16.30
2018-09-20T01:14:03.649Z,16.30
2018-09-20T01:16:32.382Z,16.20
2018-09-20T01:19:01.080Z,16.30
2018-09-20T01:21:29.730Z,16.30
2018-09-20T01:23:58.426Z,16.30
2018-09-20T01:26:27.037Z,16.30
2018-09-20T01:28:55.941Z,16.30
2018-09-20T01:31:24.701Z,16.30
2018-09-20T01:33:53.358Z,16.30
2018-09-20T01:36:22.121Z,16.30
2018-09-20T01:38:50.756Z,16.30
2018-09-20T01:41:19.418Z,16.20
2018-09-20T01:43:48.075Z,16.20
2018-09-20T01:46:16.690Z,16.10
2018-09-20T01:48:45.401Z,16.20
2018-09-20T01:51:14.021Z,16.10
2018-09-20T01:53:42.619Z,16.00
2018-09-20T01:56:15.707Z,16.00
2018-09-20T01:58:45.676Z,16.00
2018-09-20T02:01:14.330Z,16.00
2018-09-20T02:03:42.974Z,16.00
2018-09-20T02:06:11.611Z,16.00
2018-09-20T02:08:40.213Z,16.00
2018-09-20T02:11:43.050Z,16.00
2018-09-20T02:14:11.477Z,16.00
2018-09-20T02:16:39.869Z,15.90
2018-09-20T02:19:08.314Z,15.70
2018-09-20T02:21:36.920Z,15.60
2018-09-20T02:24:05.574Z,15.50
2018-09-20T02:26:34.235Z,15.40
2018-09-20T02:29:02.870Z,15.40
2018-09-20T02:31:31.559Z,15.30
2018-09-20T02:34:00.406Z,15.20
2018-09-20T02:36:29.006Z,15.20
2018-09-20T02:38:57.731Z,15.20
2018-09-20T02:41:26.550Z,15.20
2018-09-20T02:43:55.251Z,15.30
2018-09-20T02:46:23.941Z,15.30
2018-09-20T02:48:52.612Z,15.30
2018-09-20T02:51:21.916Z,15.30
2018-09-20T02:53:50.869Z,15.30
2018-09-20T02:56:19.876Z,15.30
2018-09-20T02:58:48.572Z,15.30
2018-09-20T03:01:17.205Z,15.30
2018-09-20T03:03:45.863Z,15.40
2018-09-20T03:06:14.509Z,15.30
2018-09-20T03:08:43.216Z,15.30
2018-09-20T03:11:11.875Z,15.30
2018-09-20T03:13:40.530Z,15.30
2018-09-20T03:16:09.236Z,15.20
2018-09-20T03:18:37.939Z,15.10
2018-09-20T03:21:06.601Z,15.10
2018-09-20T03:23:35.265Z,15.00
2018-09-20T03:26:03.935Z,15.00
2018-09-20T03:28:32.614Z,15.00
2018-09-20T03:31:01.374Z,15.00
2018-09-20T03:33:30.089Z,15.00
2018-09-20T03:35:58.782Z,14.90
2018-09-20T03:38:27.412Z,14.90
2018-09-20T03:40:56.133Z,14.90
2018-09-20T03:43:24.760Z,14.90
2018-09-20T03:45:53.477Z,14.90
2018-09-20T03:48:22.101Z,14.90
2018-09-20T03:50:50.753Z,14.90
2018-09-20T03:53:19.439Z,14.80
2018-09-20T03:55:48.138Z,14.80
2018-09-20T03:58:16.810Z,14.80
2018-09-20T04:00:45.430Z,14.80
2018-09-20T04:03:14.219Z,14.70
2018-09-20T04:05:42.958Z,14.60
2018-09-20T04:08:11.661Z,14.60
2018-09-20T04:10:40.406Z,14.60
2018-09-20T04:13:09.207Z,14.60
2018-09-20T04:15:37.962Z,14.60
2018-09-20T04:18:06.613Z,14.50
2018-09-20T04:20:35.378Z,14.50
2018-09-20T04:23:04.117Z,14.50
2018-09-20T04:25:32.847Z,14.50
2018-09-20T04:28:01.517Z,14.40
2018-09-20T04:30:30.223Z,14.40
2018-09-20T04:32:58.917Z,14.40
2018-09-20T04:35:27.651Z,14.40
2018-09-20T04:37:56.382Z,14.50
2018-09-20T04:40:25.121Z,14.50
2018-09-20T04:42:53.754Z,14.40
2018-09-20T04:45:22.429Z,14.40
2018-09-20T04:47:51.137Z,14.40
2018-09-20T04:50:19.704Z,14.40
2018-09-20T04:52:48.373Z,14.40
2018-09-20T04:55:17.053Z,14.40
2018-09-20T04:57:45.739Z,14.40
2018-09-20T05:00:14.445Z,14.40
2018-09-20T05:02:43.204Z,14.40
2018-09-20T05:05:11.818Z,14.40
2018-09-20T05:07:41.648Z,14.40
2018-09-20T05:10:10.316Z,14.40
2018-09-20T05:12:39.002Z,14.50
2018-09-20T05:15:07.764Z,14.50
2018-09-20T05:17:36.537Z,14.60
2018-09-20T05:20:05.239Z,14.50
2018-09-20T05:22:33.913Z,14.50
2018-09-20T05:25:02.598Z,14.60
2018-09-20T05:27:31.235Z,14.60
2018-09-20T05:29:59.849Z,14.70
2018-09-20T05:32:28.556Z,14.80
2018-09-20T05:34:57.254Z,14.90
2018-09-20T05:37:25.908Z,14.90
2018-09-20T05:39:54.518Z,15.10
2018-09-20T05:42:23.136Z,15.20
2018-09-20T05:44:52.029Z,15.30
2018-09-20T05:47:20.702Z,15.30
2018-09-20T05:49:49.375Z,15.20
2018-09-20T05:52:17.977Z,15.20
2018-09-20T05:54:46.634Z,15.20
2018-09-20T05:57:15.313Z,15.20
2018-09-20T05:59:43.996Z,15.20
2018-09-20T06:02:12.640Z,15.40
2018-09-20T06:04:41.346Z,15.50
2018-09-20T06:07:10.012Z,15.60
2018-09-20T06:09:38.770Z,15.80
2018-09-20T06:12:07.450Z,15.80
2018-09-20T06:14:36.077Z,15.90
2018-09-20T06:17:04.928Z,16.00
2018-09-20T06:19:33.590Z,16.10
2018-09-20T06:22:02.230Z,16.30
2018-09-20T06:24:30.941Z,16.40
2018-09-20T06:27:00.426Z,16.50
2018-09-20T06:29:29.026Z,16.60
2018-09-20T06:31:57.701Z,16.70
2018-09-20T06:34:27.427Z,16.80
2018-09-20T06:36:56.627Z,16.90
2018-09-20T06:39:25.364Z,17.00
2018-09-20T06:41:53.976Z,17.10
2018-09-20T06:44:22.685Z,17.20
2018-09-20T06:46:51.419Z,17.20
2018-09-20T06:49:20.161Z,17.30
2018-09-20T06:51:48.838Z,17.40
2018-09-20T06:54:17.514Z,17.50
2018-09-20T06:56:46.250Z,17.60
2018-09-20T06:59:14.958Z,17.60
2018-09-20T07:01:43.642Z,17.60
2018-09-20T07:04:12.357Z,17.60
2018-09-20T07:06:41.023Z,17.70
2018-09-20T07:09:11.790Z,17.80
2018-09-20T07:11:40.751Z,17.80
2018-09-20T07:14:09.467Z,17.90
2018-09-20T07:16:38.175Z,18.00
2018-09-20T07:19:06.935Z,18.10
2018-09-20T07:21:35.658Z,18.20
2018-09-20T07:24:04.410Z,18.30
2018-09-20T07:26:33.030Z,18.40
2018-09-20T07:29:04.389Z,18.80
2018-09-20T07:31:33.086Z,19.10
2018-09-20T07:34:01.736Z,19.40
2018-09-20T07:36:31.110Z,19.70
2018-09-20T07:38:59.780Z,20.10
2018-09-20T07:41:28.366Z,20.40
2018-09-20T07:43:56.975Z,20.70
2018-09-20T07:46:25.620Z,20.70
2018-09-20T07:48:54.361Z,20.70
2018-09-20T07:51:22.970Z,20.90
2018-09-20T07:53:51.709Z,21.10
2018-09-20T07:56:20.420Z,21.30
2018-09-20T07:58:49.124Z,21.70
2018-09-20T08:01:17.688Z,22.00
2018-09-20T08:03:46.411Z,22.30
2018-09-20T08:06:15.169Z,22.80
2018-09-20T08:08:43.809Z,23.20
2018-09-20T08:11:12.507Z,23.60
2018-09-20T08:13:41.153Z,23.70
2018-09-20T08:16:09.847Z,23.70
2018-09-20T08:18:38.546Z,23.90
2018-09-20T08:21:07.652Z,24.20
2018-09-20T08:23:36.298Z,24.50
2018-09-20T08:26:04.994Z,24.80
2018-09-20T08:28:33.670Z,25.10
2018-09-20T08:31:02.462Z,25.50
2018-09-20T08:33:31.054Z,25.80
2018-09-20T08:35:59.700Z,26.00
2018-09-20T08:38:28.446Z,26.20
2018-09-20T08:40:57.214Z,26.20
2018-09-20T08:43:25.923Z,26.30
2018-09-20T08:45:54.648Z,26.50
2018-09-20T08:48:23.298Z,26.70
2018-09-20T08:50:52.000Z,26.80
2018-09-20T08:53:20.751Z,27.00
2018-09-20T08:55:49.406Z,27.30
2018-09-20T08:58:18.108Z,27.60
2018-09-20T09:00:46.818Z,27.80
2018-09-20T09:03:15.429Z,28.10
2018-09-20T09:05:44.159Z,28.30
2018-09-20T09:08:12.777Z,28.30
2018-09-20T09:10:41.530Z,28.20
2018-09-20T09:13:10.385Z,28.40
2018-09-20T09:15:39.090Z,28.20
2018-09-20T09:18:07.855Z,28.00
2018-09-20T09:20:36.462Z,28.10
2018-09-20T09:23:05.154Z,28.10
2018-09-20T09:25:33.831Z,27.90
2018-09-20T09:28:02.502Z,27.80
2018-09-20T09:30:31.157Z,27.80
2018-09-20T09:32:59.846Z,27.70
2018-09-20T09:35:28.611Z,27.90
2018-09-20T09:37:57.227Z,27.90
2018-09-20T09:40:26.493Z,27.90
2018-09-20T09:42:55.221Z,27.90
2018-09-20T09:45:23.883Z,28.20
2018-09-20T09:47:52.499Z,28.10
2018-09-20T09:50:21.111Z,28.10
2018-09-20T09:52:49.779Z,28.30
2018-09-20T09:55:18.475Z,28.30
2018-09-20T09:57:55.274Z,28.10
2018-09-20T10:00:29.406Z,27.90
2018-09-20T10:02:59.282Z,27.70
2018-09-20T10:05:28.302Z,27.60
2018-09-20T10:07:58.516Z,27.70
2018-09-20T10:10:27.107Z,27.60
2018-09-20T10:12:55.805Z,27.80
2018-09-20T10:15:24.497Z,27.60
2018-09-20T10:17:53.082Z,27.50
2018-09-20T10:20:21.828Z,27.30
2018-09-20T10:22:51.821Z,27.50
2018-09-20T10:25:20.969Z,27.80
2018-09-20T10:27:49.572Z,27.90
2018-09-20T10:30:18.536Z,28.10
2018-09-20T10:32:47.873Z,28.30
2018-09-20T10:35:16.825Z,28.60
2018-09-20T10:37:45.481Z,28.80
2018-09-20T10:40:31.289Z,28.90
2018-09-20T10:43:01.397Z,28.90
2018-09-20T10:45:30.733Z,29.00
2018-09-20T10:48:05.442Z,28.80
2018-09-20T10:50:34.378Z,28.70
2018-09-20T10:53:03.383Z,28.70
2018-09-20T10:55:32.337Z,28.70
2018-09-20T10:58:01.714Z,28.80
2018-09-20T11:00:30.606Z,29.10
2018-09-20T11:02:59.650Z,29.10
2018-09-20T11:05:28.253Z,29.10
2018-09-20T11:07:57.067Z,29.10
2018-09-20T11:10:25.826Z,29.10
2018-09-20T11:12:54.405Z,29.00
2018-09-20T11:15:23.311Z,29.00
2018-09-20T11:17:51.998Z,29.00
2018-09-20T11:20:20.645Z,29.00
2018-09-20T11:22:49.307Z,29.40
2018-09-20T11:25:18.016Z,29.60
2018-09-20T11:27:46.937Z,29.70
2018-09-20T11:30:15.636Z,29.90
2018-09-20T11:32:44.280Z,30.00
2018-09-20T11:35:13.614Z,29.80
2018-09-20T11:37:42.481Z,29.80
2018-09-20T11:40:12.056Z,29.90
2018-09-20T11:42:40.867Z,30.20
2018-09-20T11:45:09.573Z,30.50
2018-09-20T11:47:38.157Z,30.70
2018-09-20T11:50:09.964Z,30.30
2018-09-20T11:52:40.209Z,30.20
2018-09-20T11:55:08.947Z,30.30
2018-09-20T11:57:38.554Z,30.70
2018-09-20T12:00:07.855Z,30.50
2018-09-20T12:02:37.157Z,30.40
2018-09-20T12:05:06.241Z,30.40
2018-09-20T12:07:36.206Z,30.50
2018-09-20T12:10:05.941Z,30.70
2018-09-20T12:12:34.593Z,30.80
2018-09-20T12:15:03.528Z,30.90
2018-09-20T12:17:32.627Z,30.90
2018-09-20T12:20:01.894Z,30.80
2018-09-20T12:22:31.017Z,30.80
2018-09-20T12:25:01.250Z,30.50
2018-09-20T12:27:32.112Z,30.60
2018-09-20T12:30:00.818Z,30.60
2018-09-20T12:32:30.284Z,30.50
2018-09-20T12:34:59.000Z,30.50
2018-09-20T12:37:33.154Z,30.50
2018-09-20T12:40:02.584Z,30.60
2018-09-20T12:42:31.565Z,30.60
2018-09-20T12:45:02.439Z,30.90
2018-09-20T12:47:32.844Z,30.80
2018-09-20T12:50:02.405Z,30.60
2018-09-20T12:52:31.692Z,30.70
2018-09-20T12:55:00.702Z,30.50
2018-09-20T12:57:29.409Z,30.30
2018-09-20T12:59:59.933Z,30.60
2018-09-20T13:02:29.848Z,31.00
2018-09-20T13:04:59.146Z,31.00
2018-09-20T13:07:27.761Z,31.00
2018-09-20T13:09:56.632Z,31.30
2018-09-20T13:12:26.651Z,31.60
2018-09-20T13:14:55.605Z,31.40
2018-09-20T13:17:24.716Z,31.50
2018-09-20T13:19:54.214Z,31.80
2018-09-20T13:22:23.469Z,32.00
2018-09-20T13:24:52.092Z,32.00
2018-09-20T13:27:20.839Z,32.30
2018-09-20T13:29:50.105Z,32.30
2018-09-20T13:32:18.780Z,32.70
2018-09-20T13:34:47.712Z,33.20
2018-09-20T13:37:17.023Z,33.20
2018-09-20T13:39:45.697Z,33.10
2018-09-20T13:42:16.223Z,33.00
2018-09-20T13:44:45.564Z,33.30
2018-09-20T13:47:15.196Z,33.00
2018-09-20T13:49:45.308Z,32.70
2018-09-20T13:52:14.657Z,32.90
2018-09-20T13:54:43.518Z,33.00
2018-09-20T13:57:12.492Z,33.00
2018-09-20T13:59:41.729Z,33.50
2018-09-20T14:02:16.807Z,33.90
2018-09-20T14:04:45.597Z,34.00
2018-09-20T14:07:14.261Z,34.40
2018-09-20T14:09:43.069Z,34.30
2018-09-20T14:12:11.754Z,34.60
2018-09-20T14:14:40.474Z,34.90
2018-09-20T14:17:09.155Z,34.80
2018-09-20T14:19:37.839Z,35.30
2018-09-20T14:22:06.624Z,35.60
2018-09-20T14:24:36.239Z,36.20
2018-09-20T14:27:05.090Z,36.00
2018-09-20T14:29:33.791Z,35.00
2018-09-20T14:32:02.452Z,34.90
2018-09-20T14:34:36.882Z,35.30
2018-09-20T14:37:06.364Z,34.80
2018-09-20T14:39:43.005Z,34.70
2018-09-20T14:42:12.058Z,35.10
2018-09-20T14:44:40.755Z,35.00
2018-09-20T14:47:09.724Z,35.20
2018-09-20T14:49:41.159Z,34.80
2018-09-20T14:52:10.001Z,34.90
2018-09-20T14:54:39.033Z,35.20
2018-09-20T14:57:07.869Z,35.10
2018-09-20T14:59:36.646Z,35.20
2018-09-20T15:02:05.433Z,35.40
2018-09-20T15:04:34.117Z,35.10
2018-09-20T15:07:02.877Z,35.20
2018-09-20T15:09:31.482Z,35.60
2018-09-20T15:12:00.283Z,35.30
2018-09-20T15:14:29.897Z,35.00
2018-09-20T15:16:58.656Z,35.30
2018-09-20T15:19:27.687Z,35.60
2018-09-20T15:21:58.371Z,36.00
2018-09-20T15:24:27.313Z,35.80
2018-09-20T15:27:04.999Z,36.20
2018-09-20T15:29:35.194Z,35.80
2018-09-20T15:32:03.848Z,35.00
2018-09-20T15:34:32.503Z,35.00
2018-09-20T15:37:01.889Z,35.60
2018-09-20T15:39:31.585Z,36.30
2018-09-20T15:42:00.785Z,36.50
2018-09-20T15:44:30.800Z,36.90
2018-09-20T15:47:00.795Z,37.50
2018-09-20T15:49:29.568Z,37.70
2018-09-20T15:51:58.487Z,37.20
2018-09-20T15:54:28.051Z,37.50
2018-09-20T15:57:01.863Z,37.00
2018-09-20T15:59:30.617Z,36.40
2018-09-20T16:01:59.277Z,36.70
2018-09-20T16:04:28.263Z,37.10
2018-09-20T16:06:56.901Z,37.80
2018-09-20T16:09:25.894Z,38.00
2018-09-20T16:11:56.735Z,37.70
2018-09-20T16:14:25.913Z,37.20
2018-09-20T16:16:54.703Z,36.40
2018-09-20T16:19:24.530Z,36.10
2018-09-20T16:21:53.291Z,35.90
2018-09-20T16:24:22.016Z,35.70
2018-09-20T16:26:50.914Z,35.60
2018-09-20T16:29:33.920Z,34.50
2018-09-20T16:35:17.125Z,33.10
2018-09-20T16:38:01.254Z,32.00
2018-09-20T16:40:32.779Z,30.40
2018-09-20T16:43:07.843Z,30.50
2018-09-20T16:45:37.181Z,31.00
2018-09-20T16:48:06.061Z,31.50
2018-09-20T16:50:34.749Z,31.70
2018-09-20T16:53:04.203Z,31.30
2018-09-20T16:55:33.243Z,30.80
2018-09-20T16:58:01.970Z,30.50
2018-09-20T17:00:30.610Z,30.20
2018-09-20T17:02:59.289Z,29.90
2018-09-20T17:05:28.019Z,29.50
2018-09-20T17:07:56.762Z,28.90
2018-09-20T17:10:25.792Z,28.30
2018-09-20T17:12:54.463Z,27.70
2018-09-20T17:15:23.393Z,27.40
2018-09-20T17:17:52.343Z,27.10
2018-09-20T17:20:21.079Z,26.80
2018-09-20T17:22:49.987Z,26.70
2018-09-20T17:25:19.109Z,26.60
2018-09-20T17:27:47.723Z,26.50
2018-09-20T17:30:16.457Z,26.40
2018-09-20T17:32:45.076Z,26.40
2018-09-20T17:35:14.899Z,26.40
2018-09-20T17:37:45.486Z,26.30
2018-09-20T17:40:15.437Z,26.20
2018-09-20T17:42:45.690Z,26.10
2018-09-20T17:45:14.512Z,26.00
2018-09-20T17:47:43.323Z,25.80
2018-09-20T17:50:12.137Z,25.60
2018-09-20T17:52:41.267Z,25.30
2018-09-20T17:55:10.598Z,24.90
2018-09-20T17:57:40.461Z,24.60
2018-09-20T18:00:09.300Z,24.40
2018-09-20T18:02:37.966Z,24.30
2018-09-20T18:05:06.665Z,24.30
2018-09-20T18:07:35.333Z,24.20
2018-09-20T18:10:04.467Z,24.10
2018-09-20T18:12:33.335Z,24.10
2018-09-20T18:15:02.096Z,24.10
2018-09-20T18:17:30.622Z,24.00
2018-09-20T18:19:59.491Z,24.00
2018-09-20T18:22:28.147Z,23.90
2018-09-20T18:24:58.194Z,23.80
2018-09-20T18:27:27.109Z,23.70
2018-09-20T18:29:56.019Z,23.50
2018-09-20T18:32:24.943Z,23.40
2018-09-20T18:34:53.583Z,23.40
2018-09-20T18:37:25.296Z,23.20
2018-09-20T18:39:55.528Z,23.10
2018-09-20T18:42:24.287Z,23.00
2018-09-20T18:44:53.399Z,22.90
2018-09-20T18:47:22.803Z,22.70
2018-09-20T18:49:51.866Z,22.60
2018-09-20T18:52:21.887Z,22.50
2018-09-20T18:54:52.835Z,22.30
2018-09-20T18:57:21.628Z,22.10
2018-09-20T18:59:51.464Z,22.00
2018-09-20T19:02:20.395Z,21.90
2018-09-20T19:04:50.694Z,21.70
2018-09-20T19:07:19.464Z,21.60
2018-09-20T19:09:48.681Z,21.50
2018-09-20T19:12:18.409Z,21.30
2018-09-20T19:14:47.903Z,21.20
2018-09-20T19:17:16.634Z,21.20
2018-09-20T19:19:47.085Z,21.10
2018-09-20T19:22:16.734Z,21.10
2018-09-20T19:24:46.282Z,21.00
2018-09-20T19:27:15.716Z,21.00
2018-09-20T19:29:46.685Z,20.90
2018-09-20T19:32:15.987Z,20.90
2018-09-20T19:34:46.087Z,20.80
2018-09-20T19:37:15.871Z,20.80
2018-09-20T19:39:44.898Z,20.70
2018-09-20T19:42:14.136Z,20.70
2018-09-20T19:44:45.024Z,20.60
2018-09-20T19:47:14.062Z,20.50
2018-09-20T19:49:43.370Z,20.40
2018-09-20T19:52:12.314Z,20.20
2018-09-20T19:54:42.133Z,20.20
2018-09-20T19:57:11.499Z,20.00
2018-09-20T19:59:40.783Z,20.00
2018-09-20T20:02:11.336Z,19.90
2018-09-20T20:04:40.792Z,19.80
2018-09-20T20:07:09.899Z,19.70
2018-09-20T20:09:39.089Z,19.60
2018-09-20T20:12:07.923Z,19.50
2018-09-20T20:14:36.661Z,19.50
2018-09-20T20:17:05.647Z,19.50
2018-09-20T20:19:34.584Z,19.50
2018-09-20T20:22:03.199Z,19.50
2018-09-20T20:24:32.189Z,19.40
2018-09-20T20:27:01.659Z,19.40
2018-09-20T20:29:30.921Z,19.30
2018-09-20T20:32:00.579Z,19.30
2018-09-20T20:34:31.241Z,19.20
2018-09-20T20:37:00.253Z,19.10
2018-09-20T20:39:29.320Z,19.10
2018-09-20T20:41:58.357Z,19.00
2018-09-20T20:44:28.814Z,19.00
2018-09-20T20:46:57.573Z,18.90
2018-09-20T20:49:28.097Z,18.90
2018-09-20T20:51:57.747Z,18.80
2018-09-20T20:54:26.527Z,18.80
2018-09-20T20:56:55.485Z,18.70
2018-09-20T20:59:24.229Z,18.60
2018-09-20T21:01:53.091Z,18.60
2018-09-20T21:04:21.996Z,18.60
2018-09-20T21:06:50.975Z,18.50
2018-09-20T21:09:19.669Z,18.50
2018-09-20T21:11:48.724Z,18.40
2018-09-20T21:14:17.476Z,18.40
2018-09-20T21:16:46.420Z,18.40
2018-09-20T21:19:15.321Z,18.30
2018-09-20T21:21:43.989Z,18.20
2018-09-20T21:24:12.915Z,18.20
2018-09-20T21:26:41.533Z,18.20
2018-09-20T21:29:10.195Z,18.20
2018-09-20T21:31:38.977Z,18.20
2018-09-20T21:34:07.625Z,18.20
2018-09-20T21:36:36.297Z,18.10
2018-09-20T21:39:08.397Z,18.00
2018-09-20T21:41:37.091Z,18.00
2018-09-20T21:44:05.810Z,17.90
2018-09-20T21:46:34.441Z,17.90
2018-09-20T21:49:03.034Z,17.80
2018-09-20T21:51:31.853Z,17.80
2018-09-20T21:54:00.860Z,17.70
2018-09-20T21:56:29.946Z,17.70
2018-09-20T21:58:58.547Z,17.60
2018-09-20T22:01:27.214Z,17.50
2018-09-20T22:03:55.885Z,17.50
2018-09-20T22:06:24.595Z,17.50
2018-09-20T22:08:53.618Z,17.40
2018-09-20T22:11:22.282Z,17.40
2018-09-20T22:13:51.282Z,17.40
2018-09-20T22:16:20.071Z,17.30
2018-09-20T22:18:48.680Z,17.20
2018-09-20T22:21:17.448Z,17.20
2018-09-20T22:23:46.095Z,17.10
2018-09-20T22:26:14.725Z,17.10
2018-09-20T22:28:43.593Z,17.10
2018-09-20T22:31:12.573Z,17.10
2018-09-20T22:33:41.235Z,17.00
2018-09-20T22:36:09.934Z,16.90
2018-09-20T22:38:38.890Z,16.80
2018-09-20T22:41:07.612Z,16.70
2018-09-20T22:43:36.289Z,16.70
2018-09-20T22:46:04.942Z,16.60
2018-09-20T22:48:33.567Z,16.50
2018-09-20T22:51:02.222Z,16.50
2018-09-20T22:53:30.969Z,16.50
2018-09-20T22:55:59.685Z,16.50
2018-09-20T22:58:28.955Z,16.50
2018-09-20T23:00:58.290Z,16.60
2018-09-20T23:03:27.179Z,16.60
2018-09-20T23:05:55.996Z,16.60
2018-09-20T23:08:24.603Z,16.60
2018-09-20T23:10:53.385Z,16.70
2018-09-20T23:13:22.279Z,16.70
2018-09-20T23:15:50.946Z,16.70
2018-09-20T23:18:19.657Z,16.80
2018-09-20T23:20:48.402Z,16.80
2018-09-20T23:23:16.999Z,16.80
2018-09-20T23:25:45.661Z,16.90
2018-09-20T23:28:14.311Z,16.90
2018-09-20T23:30:43.121Z,16.80
2018-09-20T23:33:11.745Z,16.80
2018-09-20T23:35:40.677Z,16.80
2018-09-20T23:38:09.390Z,16.70
2018-09-20T23:40:38.453Z,16.70
2018-09-20T23:43:07.069Z,16.70
2018-09-20T23:45:35.649Z,16.60
2018-09-20T23:48:04.352Z,16.60
2018-09-20T23:50:33.395Z,16.60
2018-09-20T23:53:02.134Z,16.70
2018-09-20T23:55:30.730Z,16.70
2018-09-20T23:57:59.649Z,16.60
